Time;durP1;ratioP1;P1;durP2;ratioP2;P2;SDS_P1;SDS_P2;PMS_P1;PMS_P2;Temp;Humidity;BMP_temperature;BMP_pressure;BME280_temperature;BME280_humidity;BME280_pressure;Samples;Min_cycle;Max_cycle;Signal;HPM_P1;HPM_P2
2021/10/16 00:02:07;;;;;;;;;;;;;;;-142.75;100.00;78113.88;5041743;28;19917;-81
2021/10/16 00:04:32;;;;;;;;;;;;;;;-142.75;100.00;78113.88;5023692;28;19963;-81
2021/10/16 00:06:57;;;;;;;;;;;;;;;-142.75;100.00;78121.75;5025336;28;20317;-83
2021/10/16 00:09:23;;;;;;;;;;;;;;;-142.75;100.00;78117.81;5044796;28;19920;-81
2021/10/16 00:11:48;;;;;;;;;;;;;;;-142.75;100.00;78119.78;5042331;28;20382;-82
2021/10/16 00:14:13;;;;;;;;;;;;;;;-142.75;100.00;78113.88;5041993;28;19928;-81
2021/10/16 00:16:38;;;;;;;;;;;;;;;-142.75;100.00;78102.06;5042806;28;19924;-81
2021/10/16 00:19:05;;;;;;;;;;;;;;;-142.75;100.00;78094.19;5043310;28;19921;-81
2021/10/16 00:21:30;;;;;;;;;;;;;;;-142.75;100.00;78068.59;5044991;28;19923;-81
2021/10/16 00:23:55;;;;;;;;;;;;;;;-142.75;100.00;78068.59;5027772;28;20426;-81
2021/10/16 00:26:21;;;;;;;;;;;;;;;-142.75;100.00;78062.69;5043542;28;20007;-81
2021/10/16 00:28:46;;;;;;;;;;;;;;;-142.75;100.00;78058.72;5043841;28;20386;-82
2021/10/16 00:31:11;;;;;;;;;;;;;;;-142.75;100.00;78048.88;5046128;28;19982;-84
2021/10/16 00:33:36;;;;;;;;;;;;;;;-142.75;100.00;78062.69;5030384;28;19927;-82
2021/10/16 00:36:02;;;;;;;;;;;;;;;-142.75;100.00;78058.72;5026358;28;19925;-83
2021/10/16 00:38:28;;;;;;;;;;;;;;;-142.75;100.00;78050.84;5047411;28;19917;-83
2021/10/16 00:40:53;;;;;;;;;;;;;;;-142.75;100.00;78042.97;5047742;28;19917;-81
2021/10/16 00:43:18;;;;;;;;;;;;;;;-142.75;100.00;78064.66;5031536;28;19924;-82
2021/10/16 00:45:43;;;;;;;;;;;;;;;-142.75;100.00;78068.59;5025668;28;19920;-82
2021/10/16 00:48:08;;;;;;;;;;;;;;;-142.75;100.00;78066.63;5041145;28;20024;-83
2021/10/16 00:50:34;;;;;;;;;;;;;;;-142.75;100.00;78060.72;5047613;28;20382;-81
2021/10/16 00:52:59;;;;;;;;;;;;;;;-142.75;100.00;78052.81;5030694;28;19925;-82
2021/10/16 00:55:26;;;;;;;;;;;;;;;-142.75;100.00;78058.72;5028407;28;19921;-80
2021/10/16 00:57:53;;;;;;;;;;;;;;;-142.75;100.00;78062.69;5025465;28;20403;-83
2021/10/16 01:00:18;;;;;;;;;;;;;;;-142.75;100.00;78058.72;5046733;28;20374;-82
2021/10/16 01:02:43;;;;;;;;;;;;;;;-142.75;100.00;78048.88;5030185;28;20004;-83
2021/10/16 01:05:09;;;;;;;;;;;;;;;-142.75;100.00;78042.97;5021781;28;20049;-83
2021/10/16 01:07:35;;;;;;;;;;;;;;;-142.75;100.00;78064.66;5046910;28;19991;-82
2021/10/16 01:10:01;;;;;;;;;;;;;;;-142.75;100.00;78064.66;5045483;28;20293;-81
2021/10/16 01:12:29;;;;;;;;;;;;;;;-142.75;100.00;78056.78;5023452;28;20011;-81
2021/10/16 01:14:58;;;;;;;;;;;;;;;-142.75;100.00;78068.59;5047621;28;19928;-81
2021/10/16 01:17:24;;;;;;;;;;;;;;;-142.75;100.00;78058.72;5036420;28;19917;-81
2021/10/16 01:19:51;;;;;;;;;;;;;;;-142.75;100.00;78058.72;5024629;28;19916;-81
2021/10/16 01:22:16;;;;;;;;;;;;;;;-142.75;100.00;78060.72;5028446;28;19925;-81
2021/10/16 01:24:41;;;;;;;;;;;;;;;-142.75;100.00;78070.56;5023332;28;19917;-81
2021/10/16 01:27:07;;;;;;;;;;;;;;;-142.75;100.00;78080.41;5041623;28;19917;-81
2021/10/16 01:29:34;;;;;;;;;;;;;;;-142.75;100.00;78078.44;5039126;28;19963;-81
2021/10/16 01:32:00;;;;;;;;;;;;;;;-142.75;100.00;78072.53;5040444;28;19917;-81
2021/10/16 01:34:26;;;;;;;;;;;;;;;-142.75;100.00;78058.72;5045499;28;19921;-81
2021/10/16 01:36:51;;;;;;;;;;;;;;;-142.75;100.00;78058.72;5026660;28;20002;-81
2021/10/16 01:39:17;;;;;;;;;;;;;;;-142.75;100.00;78052.81;5041900;28;20302;-81
2021/10/16 01:41:42;;;;;;;;;;;;;;;-142.75;100.00;78054.81;5040332;28;20375;-81
2021/10/16 01:44:09;;;;;;;;;;;;;;;-142.75;100.00;78046.91;5041385;28;20397;-82
2021/10/16 01:46:34;;;;;;;;;;;;;;;-142.75;100.00;78042.97;5041540;28;20019;-81
2021/10/16 01:49:05;;;;;;;;;;;;;;;-142.75;100.00;78046.91;5045365;28;20012;-82
2021/10/16 01:51:31;;;;;;;;;;;;;;;-142.75;100.00;78044.94;5044080;28;19927;-81
2021/10/16 01:53:56;;;;;;;;;;;;;;;-142.75;100.00;78046.91;5038960;28;19925;-81
2021/10/16 01:56:21;;;;;;;;;;;;;;;-142.75;100.00;78054.81;5027265;28;19924;-81
2021/10/16 01:58:46;;;;;;;;;;;;;;;-142.75;100.00;78056.78;5027126;28;19923;-81
2021/10/16 02:01:11;;;;;;;;;;;;;;;-142.75;100.00;78054.81;5025033;28;19917;-81
2021/10/16 02:03:37;;;;;;;;;;;;;;;-142.75;100.00;78046.91;5024325;28;19980;-81
2021/10/16 02:06:02;;;;;;;;;;;;;;;-142.75;100.00;78058.72;5042785;28;19916;-82
2021/10/16 02:08:27;;;;;;;;;;;;;;;-142.75;100.00;78058.72;5047101;28;20384;-81
2021/10/16 02:10:52;;;;;;;;;;;;;;;-142.75;100.00;78048.88;5030187;28;19929;-82
2021/10/16 02:13:17;;;;;;;;;;;;;;;-142.75;100.00;78054.81;5020940;28;22297;-81
2021/10/16 02:15:42;;;;;;;;;;;;;;;-142.75;100.00;78052.81;5042462;28;19971;-81
2021/10/16 02:18:08;;;;;;;;;;;;;;;-142.75;100.00;78058.72;5043083;28;19917;-81
2021/10/16 02:20:33;;;;;;;;;;;;;;;-142.75;100.00;78046.91;5021507;28;19917;-81
2021/10/16 02:22:58;;;;;;;;;;;;;;;-142.75;100.00;78056.78;5025533;28;19916;-81
2021/10/16 02:25:23;;;;;;;;;;;;;;;-142.75;100.00;78054.81;5045140;28;20299;-81
2021/10/16 02:27:49;;;;;;;;;;;;;;;-142.75;100.00;78052.81;5038647;28;19917;-82
2021/10/16 02:30:14;;;;;;;;;;;;;;;-142.75;100.00;78046.91;5028021;28;19925;-82
2021/10/16 02:32:39;;;;;;;;;;;;;;;-142.75;100.00;78046.91;5045950;28;20398;-82
2021/10/16 02:37:34;;;;;;;;;;;;;;;-142.75;100.00;78033.13;5064676;28;19924;-78
2021/10/16 02:39:59;;;;;;;;;;;;;;;-142.75;100.00;78033.13;5051627;28;20402;-78
2021/10/16 02:42:24;;;;;;;;;;;;;;;-142.75;100.00;78021.31;5072900;28;19917;-80
2021/10/16 02:44:50;;;;;;;;;;;;;;;-142.75;100.00;78027.22;5054660;28;20350;-79
2021/10/16 02:47:15;;;;;;;;;;;;;;;-142.75;100.00;78027.22;5054765;28;20355;-79
2021/10/16 02:49:41;;;;;;;;;;;;;;;-142.75;100.00;78023.28;5055199;28;19916;-79
2021/10/16 02:52:06;;;;;;;;;;;;;;;-142.75;100.00;78033.13;5072731;28;20471;-80
2021/10/16 02:54:31;;;;;;;;;;;;;;;-142.75;100.00;78054.81;5072222;28;20357;-80
2021/10/16 02:56:56;;;;;;;;;;;;;;;-142.75;100.00;78062.69;5054868;28;19951;-79
2021/10/16 02:59:21;;;;;;;;;;;;;;;-142.75;100.00;78066.63;5073022;28;19923;-80
2021/10/16 03:01:47;;;;;;;;;;;;;;;-142.75;100.00;78080.41;5072516;28;19920;-79
2021/10/16 03:04:12;;;;;;;;;;;;;;;-142.75;100.00;78082.38;5054193;28;19927;-79
2021/10/16 03:06:37;;;;;;;;;;;;;;;-142.75;100.00;78086.31;5071705;28;19916;-78
2021/10/16 03:09:02;;;;;;;;;;;;;;;-142.75;100.00;78098.13;5054580;28;19923;-80
2021/10/16 03:11:28;;;;;;;;;;;;;;;-142.75;100.00;78102.06;5072679;28;19948;-80
2021/10/16 03:13:53;;;;;;;;;;;;;;;-142.75;100.00;78121.75;5072298;28;19959;-80
2021/10/16 03:16:18;;;;;;;;;;;;;;;-142.75;100.00;78117.81;5072712;28;19916;-78
2021/10/16 03:18:44;;;;;;;;;;;;;;;-142.75;100.00;78129.63;5070991;28;19924;-79
2021/10/16 03:21:09;;;;;;;;;;;;;;;-142.75;100.00;78149.31;5054134;28;19920;-80
2021/10/16 03:23:35;;;;;;;;;;;;;;;-142.75;100.00;78149.31;5072706;28;21474;-81
2021/10/16 03:26:00;;;;;;;;;;;;;;;-142.75;100.00;78153.25;5071699;28;20263;-79
2021/10/16 03:28:25;;;;;;;;;;;;;;;-142.75;100.00;78151.28;5071757;28;19970;-79
2021/10/16 03:30:50;;;;;;;;;;;;;;;-142.75;100.00;78157.19;5054752;28;19916;-79
2021/10/16 03:33:16;;;;;;;;;;;;;;;-142.75;100.00;78163.09;5072776;28;19932;-78
2021/10/16 03:35:41;;;;;;;;;;;;;;;-142.75;100.00;78165.06;5071805;28;20011;-78
2021/10/16 03:38:06;;;;;;;;;;;;;;;-142.75;100.00;78165.06;5072474;28;19928;-80
2021/10/16 03:40:31;;;;;;;;;;;;;;;-142.75;100.00;78161.13;5072437;28;19916;-78
2021/10/16 03:42:56;;;;;;;;;;;;;;;-142.75;100.00;78167.03;5054823;28;19924;-79
2021/10/16 03:45:21;;;;;;;;;;;;;;;-142.75;100.00;78172.94;5071155;28;20325;-79
2021/10/16 03:47:47;;;;;;;;;;;;;;;-142.75;100.00;78170.97;5072264;28;20405;-79
2021/10/16 03:50:12;;;;;;;;;;;;;;;-142.75;100.00;78165.06;5054213;28;19978;-80
2021/10/16 03:52:37;;;;;;;;;;;;;;;-142.75;100.00;78161.13;5056830;28;19988;-79
2021/10/16 03:55:03;;;;;;;;;;;;;;;-142.75;100.00;78165.06;5076467;28;20382;-80
2021/10/16 03:57:28;;;;;;;;;;;;;;;-142.75;100.00;78174.91;5058133;28;19916;-79
2021/10/16 03:59:53;;;;;;;;;;;;;;;-142.75;100.00;78172.94;5057755;28;20290;-79
2021/10/16 04:02:19;;;;;;;;;;;;;;;-142.75;100.00;78172.94;5076646;28;19940;-79
2021/10/16 04:04:45;;;;;;;;;;;;;;;-142.75;100.00;78172.94;5057974;28;19917;-81
2021/10/16 04:07:10;;;;;;;;;;;;;;;-142.75;100.00;78176.88;5056692;28;19959;-79
2021/10/16 04:09:35;;;;;;;;;;;;;;;-142.75;100.00;78176.88;5076639;28;19921;-79
2021/10/16 04:12:00;;;;;;;;;;;;;;;-142.75;100.00;78176.88;5058387;28;20388;-79
2021/10/16 04:14:25;;;;;;;;;;;;;;;-142.75;100.00;78188.72;5075962;28;19920;-78
2021/10/16 04:16:50;;;;;;;;;;;;;;;-142.75;100.00;78192.66;5075908;28;20381;-79
2021/10/16 04:19:16;;;;;;;;;;;;;;;-142.75;100.00;78200.53;5057720;28;20019;-79
2021/10/16 04:21:41;;;;;;;;;;;;;;;-142.75;100.00;78208.41;5057920;28;20017;-79
2021/10/16 04:24:06;;;;;;;;;;;;;;;-142.75;100.00;78212.34;5057470;28;19927;-80
2021/10/16 04:26:31;;;;;;;;;;;;;;;-142.75;100.00;78230.06;5057966;28;19917;-78
2021/10/16 04:28:56;;;;;;;;;;;;;;;-142.75;100.00;78234.00;5057471;28;19920;-80
2021/10/16 04:31:22;;;;;;;;;;;;;;;-142.75;100.00;78235.97;5058016;28;20334;-80
2021/10/16 04:33:47;;;;;;;;;;;;;;;-142.75;100.00;78243.84;5075586;28;19924;-79
2021/10/16 04:36:12;;;;;;;;;;;;;;;-142.75;100.00;78247.78;5057160;28;19920;-78
2021/10/16 04:38:37;;;;;;;;;;;;;;;-142.75;100.00;78257.63;5075537;28;19923;-79
2021/10/16 04:41:03;;;;;;;;;;;;;;;-142.75;100.00;78255.66;5075596;28;19968;-80
2021/10/16 04:43:28;;;;;;;;;;;;;;;-142.75;100.00;78259.59;5075803;28;19922;-80
2021/10/16 04:45:54;;;;;;;;;;;;;;;-142.75;100.00;78257.63;5074516;28;19962;-80
2021/10/16 04:48:19;;;;;;;;;;;;;;;-142.75;100.00;78261.56;5057357;28;19917;-79
2021/10/16 04:50:45;;;;;;;;;;;;;;;-142.75;100.00;78255.66;5057436;28;19916;-79
2021/10/16 04:53:10;;;;;;;;;;;;;;;-142.75;100.00;78255.66;5075378;28;19953;-79
2021/10/16 04:55:35;;;;;;;;;;;;;;;-142.75;100.00;78265.50;5057069;28;19959;-79
2021/10/16 04:58:00;;;;;;;;;;;;;;;-142.75;100.00;78275.34;5057138;28;20002;-80
2021/10/16 05:00:26;;;;;;;;;;;;;;;-142.75;100.00;78277.31;5056803;28;19917;-80
2021/10/16 05:02:51;;;;;;;;;;;;;;;-142.75;100.00;78281.25;5056950;28;20370;-80
2021/10/16 05:05:16;;;;;;;;;;;;;;;-142.75;100.00;78285.19;5056775;28;19922;-80
2021/10/16 05:07:41;;;;;;;;;;;;;;;-142.75;100.00;78287.16;5074953;28;19908;-80
2021/10/16 05:10:06;;;;;;;;;;;;;;;-142.75;100.00;78295.06;5074585;28;19927;-79
2021/10/16 05:12:32;;;;;;;;;;;;;;;-142.75;100.00;78297.00;5057399;28;19960;-80
2021/10/16 05:14:57;;;;;;;;;;;;;;;-142.75;100.00;78304.91;5073225;28;19924;-79
2021/10/16 05:17:22;;;;;;;;;;;;;;;-142.75;100.00;78318.69;5074698;28;20455;-80
2021/10/16 05:19:48;;;;;;;;;;;;;;;-142.75;100.00;78318.69;5074805;28;19916;-81
2021/10/16 05:22:13;;;;;;;;;;;;;;;-142.75;100.00;78312.78;5074979;28;19916;-81
2021/10/16 05:24:38;;;;;;;;;;;;;;;-142.75;100.00;78316.72;5073410;28;19959;-79
2021/10/16 05:27:03;;;;;;;;;;;;;;;-142.75;100.00;78326.56;5056354;28;20433;-79
2021/10/16 05:29:30;;;;;;;;;;;;;;;-142.75;100.00;78328.53;5073868;28;21246;-79
2021/10/16 05:31:55;;;;;;;;;;;;;;;-142.75;100.00;78328.53;5056633;28;20356;-79
2021/10/16 05:34:21;;;;;;;;;;;;;;;-142.75;100.00;78324.59;5074045;28;19921;-79
2021/10/16 05:36:47;;;;;;;;;;;;;;;-142.75;100.00;78310.81;5056114;28;19916;-79
2021/10/16 05:39:12;;;;;;;;;;;;;;;-142.75;100.00;78302.94;5074301;28;19920;-79
2021/10/16 05:41:37;;;;;;;;;;;;;;;-142.75;100.00;78293.06;5072395;28;20018;-79
2021/10/16 05:44:02;;;;;;;;;;;;;;;-142.75;100.00;78283.22;5056199;28;19963;-80
2021/10/16 05:46:28;;;;;;;;;;;;;;;-142.75;100.00;78271.41;5055685;28;19941;-79
2021/10/16 05:48:53;;;;;;;;;;;;;;;-142.75;100.00;78261.56;5056299;28;20340;-79
2021/10/16 05:51:18;;;;;;;;;;;;;;;-142.75;100.00;78257.63;5073822;28;20370;-79
2021/10/16 05:53:43;;;;;;;;;;;;;;;-142.75;100.00;78247.78;5056047;28;19922;-79
2021/10/16 05:56:09;;;;;;;;;;;;;;;-142.75;100.00;78235.97;5074152;28;20011;-80
2021/10/16 05:58:38;;;;;;;;;;;;;;;-142.75;100.00;78234.00;5074149;28;20382;-80
2021/10/16 06:01:03;;;;;;;;;;;;;;;-142.75;100.00;78232.03;5072992;28;19917;-78
2021/10/16 06:03:28;;;;;;;;;;;;;;;-142.75;100.00;78220.22;5056282;28;20317;-81
2021/10/16 06:05:57;;;;;;;;;;;;;;;-142.75;100.00;78220.22;5055020;28;19921;-79
2021/10/16 06:08:22;;;;;;;;;;;;;;;-142.75;100.00;78214.31;5055916;28;19970;-80
2021/10/16 06:10:48;;;;;;;;;;;;;;;-142.75;100.00;78220.22;5055397;28;19932;-80
2021/10/16 06:13:15;;;;;;;;;;;;;;;-142.75;100.00;78220.22;5055323;28;19970;-80
2021/10/16 06:15:41;;;;;;;;;;;;;;;-142.75;100.00;78222.19;5072915;28;19916;-81
2021/10/16 06:18:10;;;;;;;;;;;;;;;-142.75;100.00;78220.22;5055356;28;19916;-79
2021/10/16 06:20:35;;;;;;;;;;;;;;;-142.75;100.00;78214.31;5072283;28;19923;-78
2021/10/16 06:23:00;;;;;;;;;;;;;;;-142.75;100.00;78216.28;5054024;28;20294;-80
2021/10/16 06:25:25;;;;;;;;;;;;;;;-142.75;100.00;78196.59;5054138;28;19923;-80
2021/10/16 06:27:51;;;;;;;;;;;;;;;-142.75;100.00;78190.69;5072014;28;20278;-80
2021/10/16 06:30:16;;;;;;;;;;;;;;;-142.75;100.00;78198.56;5054399;28;19917;-81
2021/10/16 06:32:42;;;;;;;;;;;;;;;-142.75;100.00;78200.53;5072829;28;19924;-79
2021/10/16 06:35:07;;;;;;;;;;;;;;;-142.75;100.00;78188.72;5072006;28;20024;-81
2021/10/16 06:37:32;;;;;;;;;;;;;;;-142.75;100.00;78196.59;5054659;28;20277;-81
2021/10/16 06:39:57;;;;;;;;;;;;;;;-142.75;100.00;78192.66;5073243;28;19924;-81
2021/10/16 06:42:23;;;;;;;;;;;;;;;-142.75;100.00;78186.75;5071995;28;19916;-81
2021/10/16 06:44:48;;;;;;;;;;;;;;;-142.75;100.00;78188.72;5072552;28;19952;-81
2021/10/16 06:47:13;;;;;;;;;;;;;;;-142.75;100.00;78170.97;5056002;28;19920;-81
2021/10/16 09:04:50;;;;;;;23.35;3.55;;;;;;;-142.75;100.00;77771.25;5087265;27;20360;-67
2021/10/16 09:07:24;;;;;;;12.00;2.42;;;;;;;-142.75;100.00;77714.13;5087213;28;20493;-65
2021/10/16 09:09:51;;;;;;;15.90;3.00;;;;;;;-142.75;100.00;77737.78;5102478;28;20038;-69
2021/10/16 09:12:18;;;;;;;12.63;2.50;;;;;;;-142.75;98.57;77716.09;5092730;28;20033;-71
2021/10/16 09:14:48;;;;;;;15.90;2.65;;;;;;;-142.75;96.13;77763.38;5101532;28;20214;-73
2021/10/16 09:17:15;;;;;;;15.25;3.38;;;;;;;-142.75;95.88;77777.16;5089274;28;20063;-74
2021/10/16 09:19:41;;;;;;;14.00;2.40;;;;;;;-142.75;95.55;77802.75;5087051;28;20444;-73
2021/10/16 09:22:12;;;;;;;22.92;3.15;;;;;;;-142.75;97.25;77814.56;5085972;28;20023;-73
2021/10/16 09:24:41;;;;;;;262.25;18.85;;;;;;;-142.75;96.42;77834.25;5092432;28;20028;-68
2021/10/16 09:27:12;;;;;;;119.72;9.90;;;;;;;-142.75;98.19;77842.13;5107004;28;20066;-70
2021/10/16 09:29:43;;;;;;;22.40;3.13;;;;;;;-142.75;99.90;77848.03;5106021;28;20506;-69
2021/10/16 09:32:11;;;;;;;18.23;3.17;;;;;;;-142.75;98.42;77848.03;5107328;28;20019;-68
2021/10/16 09:34:42;;;;;;;30.45;4.05;;;;;;;-142.75;98.79;77834.25;5089957;28;20012;-71
2021/10/16 09:37:10;;;;;;;21.08;3.47;;;;;;;-142.75;98.78;77844.09;5090948;28;20024;-71
2021/10/16 09:39:59;;;;;;;8.15;2.50;;;;;;;-142.75;98.18;77844.09;5086947;28;20046;-70
2021/10/16 09:42:44;;;;;;;15.75;2.88;;;;;;;-142.75;98.72;77853.94;5106944;28;20117;-70
2021/10/16 09:45:13;;;;;;;17.25;2.60;;;;;;;-142.75;100.00;77855.91;5091548;28;20036;-71
2021/10/16 09:47:53;;;;;;;15.68;3.35;;;;;;;-142.75;100.00;77855.91;5086926;28;20573;-70
2021/10/16 09:50:18;;;;;;;11.50;2.53;;;;;;;-142.75;100.00;77861.81;5085319;28;20044;-72
2021/10/16 09:52:45;;;;;;;19.35;3.03;;;;;;;-142.75;100.00;77861.81;5085513;28;20092;-70
2021/10/16 09:55:13;;;;;;;19.45;2.88;;;;;;;-142.75;98.79;77871.66;5084467;28;20028;-71
2021/10/16 09:57:43;;;;;;;17.20;3.22;;;;;;;-142.75;97.66;77863.78;5084903;28;20036;-71
2021/10/16 10:00:10;;;;;;;11.05;2.40;;;;;;;-142.75;97.08;77859.84;5086483;28;20043;-69
2021/10/16 10:02:35;;;;;;;10.18;2.53;;;;;;;-142.75;95.60;77877.56;5085965;28;20059;-70
2021/10/16 10:05:03;;;;;;;13.52;2.88;;;;;;;-142.75;98.79;77873.63;5086131;28;20067;-69
2021/10/16 10:07:31;;;;;;;16.90;2.90;;;;;;;-142.75;100.00;77883.47;5093410;28;20030;-69
2021/10/16 10:09:58;;;;;;;17.65;3.70;;;;;;;-142.75;100.00;77883.47;5106116;28;20088;-71
2021/10/16 10:12:25;;;;;;;11.73;2.45;;;;;;;-142.75;100.00;77879.53;5105610;28;20052;-68
2021/10/16 10:14:52;;;;;;;16.30;2.67;;;;;;;-142.75;99.90;77881.50;5079680;28;20047;-69
2021/10/16 10:17:23;;;;;;;12.90;3.03;;;;;;;-142.75;98.47;77883.47;5083888;28;20024;-68
2021/10/16 10:19:53;;;;;;;14.05;2.55;;;;;;;-142.75;98.58;77885.44;5084367;28;20036;-68
2021/10/16 10:22:20;;;;;;;10.52;3.17;;;;;;;-142.75;98.91;77887.41;5072371;28;20028;-68
2021/10/16 10:24:48;;;;;;;13.90;2.60;;;;;;;-142.75;99.57;77893.31;5070507;28;20039;-69
2021/10/16 10:27:16;;;;;;;13.05;2.92;;;;;;;-142.75;99.75;77895.28;5072527;28;20086;-69
2021/10/16 10:29:45;;;;;;;11.00;3.00;;;;;;;-142.75;99.71;77897.25;5072212;28;20110;-69
2021/10/16 10:32:24;;;;;;;13.65;3.17;;;;;;;-142.75;100.00;77897.25;5072429;28;20482;-72
2021/10/16 10:35:00;;;;;;;12.23;2.85;;;;;;;-142.75;100.00;77901.19;5070742;28;20032;-69
2021/10/16 10:37:45;;;;;;;13.43;3.45;;;;;;;-142.75;100.00;77905.13;5073432;28;20032;-69
2021/10/16 10:40:13;;;;;;;11.32;2.47;;;;;;;-142.75;100.00;77895.28;5073715;28;20561;-69
2021/10/16 10:42:40;;;;;;;14.80;2.90;;;;;;;-142.75;100.00;77893.31;5071039;28;20082;-69
2021/10/16 10:45:31;;;;;;;17.75;3.22;;;;;;;-142.75;100.00;77877.56;5083757;28;20023;-71
2021/10/16 10:48:04;;;;;;;9.48;3.25;;;;;;;-142.75;99.30;77867.72;5073447;28;20437;-69
2021/10/16 10:50:50;;;;;;;15.27;3.45;;;;;;;-142.75;97.76;77861.81;5078812;28;20103;-69
2021/10/16 10:53:22;;;;;;;12.15;2.58;;;;;;;-142.75;96.83;77850.00;5086449;28;20038;-72
2021/10/16 10:55:59;;;;;;;11.30;2.80;;;;;;;-142.75;96.62;77846.06;5080133;28;20113;-69
2021/10/16 10:58:48;;;;;;;9.57;2.42;;;;;;;-142.75;95.31;77822.44;5078837;28;20028;-70
2021/10/16 11:01:50;;;;;;;12.07;2.42;;;;;;;-142.75;94.03;77802.75;5064024;28;20044;-72
2021/10/16 11:04:36;;;;;;;14.95;3.05;;;;;;;-142.75;94.45;77779.13;5071144;28;20020;-71
2021/10/16 11:07:04;;;;;;;10.38;2.80;;;;;;;-142.75;92.82;77771.25;5071455;28;20036;-73
2021/10/16 11:09:30;;;;;;;13.68;2.58;;;;;;;-142.75;91.02;77767.31;5070296;28;20054;-70
2021/10/16 11:11:55;;;;;;;13.25;2.88;;;;;;;-142.75;90.44;77763.38;5071471;28;20034;-70
2021/10/16 11:14:28;;;;;;;13.15;2.70;;;;;;;-142.75;89.66;77704.28;5073621;28;20035;-69
2021/10/16 11:16:54;;;;;;;15.23;3.88;;;;;;;-142.75;83.91;77562.53;5075052;28;20509;-68
2021/10/16 11:19:20;;;;;;;12.88;3.30;;;;;;;-142.75;77.77;77513.31;5071499;28;20031;-69
2021/10/16 11:21:57;;;;;;;18.48;3.55;;;;;;;-142.75;76.71;77519.22;5071623;28;20462;-70
2021/10/16 11:24:23;;;;;;;15.50;4.18;;;;;;;-142.75;79.25;77507.41;5070423;28;20028;-69
2021/10/16 11:26:57;;;;;;;17.58;3.53;;;;;;;-142.75;78.89;77479.84;5069044;28;20066;-69
2021/10/16 11:29:33;;;;;;;17.80;4.43;;;;;;;-142.75;75.06;77509.38;5069844;28;20459;-71
2021/10/16 11:32:16;;;;;;;20.70;4.80;;;;;;;-142.75;74.41;77566.47;5070087;28;20024;-70
2021/10/16 11:35:03;;;;;;;24.30;5.30;;;;;;;-142.75;74.32;77513.31;5084766;28;20092;-72
2021/10/16 11:37:47;;;;;;;;;;;;;;;-142.75;74.08;77468.03;5088439;28;20407;-71
2021/10/16 11:40:18;;;;;;;15.63;5.60;;;;;;;-142.75;72.11;77460.13;5077505;28;19912;-71
2021/10/16 11:42:46;;;;;;;17.90;4.78;;;;;;;-142.75;72.07;77485.75;5073839;28;20031;-70
2021/10/16 11:45:15;;;;;;;15.90;5.05;;;;;;;-142.75;74.32;77444.38;5090757;28;20131;-69
2021/10/16 11:47:44;;;;;;;16.45;4.82;;;;;;;-142.75;71.38;77438.47;5083771;28;20021;-72
2021/10/16 11:50:17;;;;;;;17.02;4.97;;;;;;;-142.75;71.53;77440.44;5069568;28;20025;-70
2021/10/16 11:52:43;;;;;;;17.92;3.67;;;;;;;-142.75;72.63;77430.59;5070789;28;20075;-71
2021/10/16 11:55:17;;;;;;;16.33;5.07;;;;;;;-142.75;69.51;77450.28;5083693;28;20048;-71
2021/10/16 11:57:42;;;;;;;14.88;3.42;;;;;;;-142.75;70.66;77444.38;5087377;28;20411;-70
2021/10/16 12:00:25;;;;;;;13.18;4.13;;;;;;;-142.75;71.33;77440.44;5090337;28;20031;-70
2021/10/16 12:02:51;;;;;;;16.00;3.10;;;;;;;-142.75;70.36;77462.13;5080683;28;20506;-70
2021/10/16 12:05:19;;;;;;;13.85;3.25;;;;;;;-142.75;70.23;77471.97;5078582;28;20047;-70
2021/10/16 12:07:46;;;;;;;14.00;2.72;;;;;;;-142.75;69.26;77475.91;5070464;28;20107;-70
2021/10/16 12:10:30;;;;;;;15.50;3.28;;;;;;;-142.75;71.52;77479.84;5070580;28;20373;-69
2021/10/16 12:13:07;;;;;;;13.77;2.28;;;;;;;-142.75;68.68;77462.13;5089506;28;20020;-71
2021/10/16 12:15:45;;;;;;;11.40;2.45;;;;;;;-142.75;68.62;77426.66;5090038;28;20507;-70
2021/10/16 12:18:18;;;;;;;12.50;2.83;;;;;;;-142.75;69.71;77389.25;5089276;28;20024;-70
2021/10/16 12:20:45;;;;;;;15.07;2.65;;;;;;;-142.75;68.40;77361.69;5090397;28;20511;-71
2021/10/16 12:23:11;;;;;;;14.70;2.30;;;;;;;-142.75;65.71;77351.84;5090263;28;20024;-71
2021/10/16 12:25:50;;;;;;;16.73;2.72;;;;;;;-142.75;64.60;77351.84;5072046;28;20028;-70
2021/10/16 12:28:16;;;;;;;9.93;2.20;;;;;;;-142.75;66.60;77363.66;5078287;28;20035;-71
2021/10/16 12:30:58;;;;;;;12.25;2.17;;;;;;;-142.75;65.68;77381.38;5080066;28;20036;-71
2021/10/16 12:33:23;;;;;;;8.52;1.73;;;;;;;-142.75;64.40;77405.00;5070124;28;20021;-72
2021/10/16 12:36:00;;;;;;;16.15;2.25;;;;;;;-142.75;64.09;77401.06;5068497;28;20688;-70
2021/10/16 12:38:26;;;;;;;14.90;2.30;;;;;;;-142.75;63.73;77397.13;5089741;28;20020;-70
2021/10/16 12:40:52;;;;;;;12.45;2.05;;;;;;;-142.75;64.66;77403.03;5089983;28;20050;-72
2021/10/16 12:43:27;;;;;;;12.07;2.40;;;;;;;-142.75;66.64;77373.50;5088939;28;20475;-69
2021/10/16 12:45:53;;;;;;;8.63;1.88;;;;;;;-142.75;59.96;77310.50;5081614;28;20024;-70
2021/10/16 12:48:23;;;;;;;10.55;2.08;;;;;;;-142.75;58.63;77212.06;5083033;28;20036;-71
2021/10/16 12:50:52;;;;;;;9.80;1.77;;;;;;;-142.75;56.92;77141.19;5090013;28;20050;-70
2021/10/16 12:53:18;;;;;;;12.38;2.22;;;;;;;-142.75;55.13;77184.50;5085568;28;20023;-70
2021/10/16 12:55:45;;;;;;;11.65;2.38;;;;;;;-142.75;53.79;77137.25;5088224;28;20412;-70
2021/10/16 12:58:10;;;;;;;10.35;1.60;;;;;;;-142.75;53.65;77151.03;5090187;28;20377;-70
2021/10/16 13:00:40;;;;;;;10.68;1.92;;;;;;;-142.75;53.87;77133.31;5089937;28;20054;-71
2021/10/16 13:03:07;;;;;;;11.55;1.90;;;;;;;-142.75;53.81;77111.66;5068194;28;20031;-72
2021/10/16 13:05:33;;;;;;;11.48;1.95;;;;;;;-142.75;53.34;77088.03;5069281;28;20090;-74
2021/10/16 13:07:58;;;;;;;;;;;;;;;-142.75;52.62;77103.78;5077150;28;20024;-70
2021/10/16 13:10:24;;;;;;;10.77;1.92;;;;;;;-142.75;51.92;77204.19;5072766;28;19921;-71
2021/10/16 13:12:49;;;;;;;;;;;;;;;-142.75;53.69;77214.03;5086323;28;20027;-69
2021/10/16 13:15:15;;;;;;;8.38;1.73;;;;;;;-142.75;54.00;77225.84;5089387;28;20003;-69
2021/10/16 13:17:41;;;;;;;;;;;;;;;-142.75;53.19;77245.53;5077014;28;20407;-72
2021/10/16 13:20:08;;;;;;;7.72;1.65;;;;;;;-142.75;54.27;77261.28;5076655;28;19912;-73
2021/10/16 13:22:34;;;;;;;10.82;2.03;;;;;;;-142.75;54.06;77282.94;5082012;28;20028;-69
2021/10/16 13:24:59;;;;;;;11.07;1.90;;;;;;;-142.75;56.13;77288.84;5088839;28;20035;-71
2021/10/16 13:27:25;;;;;;;;;;;;;;;-142.75;56.00;77320.34;5089518;28;20081;-71
2021/10/16 13:29:50;;;;;;;7.32;1.70;;;;;;;-142.75;59.70;77334.13;5085840;28;19924;-71
2021/10/16 13:32:15;;;;;;;;;;;;;;;-142.75;57.86;77334.13;5089972;28;20024;-74
2021/10/16 13:34:42;;;;;;;7.80;1.83;;;;;;;-142.75;58.25;77326.25;5074866;28;20374;-70
2021/10/16 13:37:08;;;;;;;10.82;2.25;;;;;;;-142.75;57.10;77359.72;5069249;28;20501;-71
2021/10/16 13:39:33;;;;;;;15.48;2.35;;;;;;;-142.75;57.51;77361.69;5069124;28;20103;-71
2021/10/16 13:41:59;;;;;;;9.30;1.83;;;;;;;-142.75;58.83;77359.72;5073667;28;20032;-71
2021/10/16 13:44:24;;;;;;;;;;;;;;;-142.75;60.07;77363.66;5079028;28;20020;-71
2021/10/16 13:46:52;;;;;;;7.22;1.30;;;;;;;-142.75;60.59;77397.13;5083523;28;19916;-70
2021/10/16 13:49:18;;;;;;;11.48;2.22;;;;;;;-142.75;61.24;77408.94;5080321;22;20049;-68
2021/10/16 13:51:43;;;;;;;10.95;2.13;;;;;;;-142.75;60.63;77418.78;5013490;28;20038;-69
2021/10/16 13:54:09;;;;;;;10.20;2.03;;;;;;;-142.75;60.95;77424.69;5012705;28;20100;-69
2021/10/16 13:56:38;;;;;;;8.60;1.63;;;;;;;-142.75;61.21;77432.56;5014279;28;20415;-69
2021/10/16 13:59:04;;;;;;;12.20;1.85;;;;;;;-142.75;61.81;77420.75;5013118;28;20076;-69
2021/10/16 14:01:29;;;;;;;9.98;1.83;;;;;;;-142.75;61.21;77434.53;5013974;28;20049;-69
2021/10/16 14:03:54;;;;;;;7.75;1.55;;;;;;;-142.75;61.05;77438.47;5013674;28;20434;-68
2021/10/16 14:06:20;;;;;;;;;;;;;;;-142.75;57.64;77448.34;5014337;28;20022;-68
2021/10/16 14:08:45;;;;;;;11.35;1.88;;;;;;;-142.75;60.36;77452.25;5014047;28;20007;-68